Time;durP1;ratioP1;P1;durP2;ratioP2;P2;SDS_P1;SDS_P2;PMS_P1;PMS_P2;Temp;Humidity;BMP_temperature;BMP_pressure;BME280_temperature;BME280_humidity;BME280_pressure;Samples;Min_cycle;Max_cycle;Signal;HPM_P1;HPM_P2
2021/03/03 00:02:23;;;;;;;5.30;1.60;;;9.20;99.90;;;;;;5106920;28;20207;-84
2021/03/03 00:04:54;;;;;;;3.63;1.40;;;9.10;99.90;;;;;;5111524;28;20672;-85
2021/03/03 00:07:27;;;;;;;3.10;1.20;;;9.30;99.90;;;;;;5111261;28;20240;-83
2021/03/03 00:09:57;;;;;;;3.67;1.30;;;9.30;99.90;;;;;;5113990;28;20205;-84
2021/03/03 00:12:28;;;;;;;6.23;1.50;;;9.10;99.90;;;;;;5112492;28;20283;-83
2021/03/03 00:14:58;;;;;;;9.70;1.60;;;9.20;99.90;;;;;;5111186;28;20536;-83
2021/03/03 00:17:29;;;;;;;6.50;1.30;;;9.30;99.90;;;;;;5094789;28;20258;-83
2021/03/03 00:19:59;;;;;;;3.17;1.20;;;9.30;99.90;;;;;;5111077;28;20274;-84
2021/03/03 00:22:32;;;;;;;3.73;1.50;;;9.20;99.90;;;;;;5092698;28;20251;-83
2021/03/03 00:25:02;;;;;;;3.60;1.23;;;9.20;99.90;;;;;;5108434;28;20206;-84
2021/03/03 00:27:32;;;;;;;4.63;1.53;;;8.90;99.90;;;;;;5110157;28;20290;-83
2021/03/03 00:30:18;;;;;;;3.20;1.30;;;9.00;99.90;;;;;;5096075;28;20736;-83
2021/03/03 00:32:48;;;;;;;5.27;1.70;;;9.00;99.90;;;;;;5095960;28;20209;-82
2021/03/03 00:35:18;;;;;;;3.00;1.33;;;9.00;99.90;;;;;;5095968;28;20226;-82
2021/03/03 00:37:48;;;;;;;5.43;1.60;;;9.00;99.90;;;;;;5096103;28;20199;-83
2021/03/03 00:40:18;;;;;;;3.97;1.87;;;9.00;99.90;;;;;;5107190;28;20640;-83
2021/03/03 00:42:47;;;;;;;3.43;1.20;;;8.90;99.90;;;;;;5111826;28;20206;-83
2021/03/03 00:45:17;;;;;;;3.20;1.20;;;8.90;99.90;;;;;;5095819;28;20362;-82
2021/03/03 00:47:47;;;;;;;4.60;1.13;;;8.80;99.90;;;;;;5095480;28;20255;-82
2021/03/03 00:50:17;;;;;;;8.13;1.80;;;8.70;99.90;;;;;;5095842;28;20236;-82
2021/03/03 00:52:48;;;;;;;4.13;1.33;;;8.60;99.90;;;;;;5109897;28;20209;-82
2021/03/03 00:55:18;;;;;;;2.93;1.20;;;8.50;99.90;;;;;;5114892;28;20198;-82
2021/03/03 00:57:48;;;;;;;4.87;1.40;;;8.30;99.90;;;;;;5116137;28;20263;-83
2021/03/03 01:00:35;;;;;;;2.77;1.20;;;8.30;99.90;;;;;;5116161;28;20277;-82
2021/03/03 01:03:05;;;;;;;3.90;1.23;;;8.30;99.90;;;;;;5099411;28;20210;-82
2021/03/03 01:05:34;;;;;;;3.83;1.40;;;8.20;99.90;;;;;;5094781;28;20283;-82
2021/03/03 01:08:05;;;;;;;3.43;1.30;;;8.10;99.90;;;;;;5095328;28;20314;-83
2021/03/03 01:10:35;;;;;;;2.67;1.00;;;8.10;99.90;;;;;;5095397;28;20235;-83
2021/03/03 01:13:05;;;;;;;2.37;1.40;;;8.00;99.90;;;;;;5094746;28;20260;-82
2021/03/03 01:15:35;;;;;;;3.43;1.23;;;8.00;99.90;;;;;;5095662;28;20209;-84
2021/03/03 01:18:05;;;;;;;3.30;1.23;;;8.00;99.90;;;;;;5096883;28;20219;-85
2021/03/03 01:20:35;;;;;;;3.00;1.50;;;7.90;99.90;;;;;;5111583;28;20202;-85
2021/03/03 01:23:08;;;;;;;3.77;1.50;;;7.90;99.90;;;;;;5116878;28;20251;-85
2021/03/03 01:25:40;;;;;;;2.93;1.27;;;7.80;99.90;;;;;;5123352;28;20198;-84
2021/03/03 01:28:11;;;;;;;2.83;1.20;;;7.70;99.90;;;;;;5123613;28;20248;-85
2021/03/03 01:30:57;;;;;;;3.63;1.57;;;7.60;99.90;;;;;;5123798;28;20213;-84
2021/03/03 01:33:29;;;;;;;6.43;1.60;;;7.50;99.90;;;;;;5117500;28;20235;-84
2021/03/03 01:36:01;;;;;;;4.33;1.43;;;7.40;99.90;;;;;;5109517;28;20240;-84
2021/03/03 01:38:34;;;;;;;2.53;1.40;;;7.40;99.90;;;;;;5111437;28;20264;-83
2021/03/03 01:41:03;;;;;;;4.20;1.50;;;7.30;99.90;;;;;;5115898;28;20221;-85
2021/03/03 01:43:34;;;;;;;2.27;1.50;;;7.20;99.90;;;;;;5115444;28;20258;-85
2021/03/03 01:46:04;;;;;;;2.53;1.20;;;7.10;99.90;;;;;;5116166;28;20198;-84
2021/03/03 01:48:34;;;;;;;3.10;1.50;;;7.00;99.90;;;;;;5103918;28;20670;-84
2021/03/03 01:51:04;;;;;;;7.47;1.83;;;6.90;99.90;;;;;;5114886;28;20271;-84
2021/03/03 01:53:35;;;;;;;5.90;1.67;;;6.70;99.90;;;;;;5114880;28;20591;-84
2021/03/03 01:56:08;;;;;;;9.27;1.60;;;6.60;99.90;;;;;;5118475;28;20241;-84
2021/03/03 01:58:38;;;;;;;4.33;2.00;;;6.60;99.90;;;;;;5112395;28;20206;-84
2021/03/03 02:01:18;;;;;;;4.93;2.50;;;6.60;99.90;;;;;;5106158;28;20292;-83
2021/03/03 02:03:48;;;;;;;8.20;3.33;;;6.50;99.90;;;;;;5099029;28;20255;-84
2021/03/03 02:06:23;;;;;;;6.77;3.43;;;6.50;99.90;;;;;;5097667;28;20234;-83
2021/03/03 02:09:02;;;;;;;6.87;3.03;;;6.50;99.90;;;;;;5115316;28;20198;-84
2021/03/03 02:11:40;;;;;;;5.87;3.13;;;6.50;99.90;;;;;;5115155;28;20335;-85
2021/03/03 02:14:15;;;;;;;6.33;2.90;;;6.40;99.90;;;;;;5115066;28;20640;-84
2021/03/03 02:16:45;;;;;;;5.00;2.57;;;6.40;99.90;;;;;;5115210;28;20882;-85
2021/03/03 02:19:22;;;;;;;3.97;2.20;;;6.40;99.90;;;;;;5095532;28;20231;-85
2021/03/03 02:22:02;;;;;;;3.10;2.30;;;6.30;99.90;;;;;;5115440;28;20232;-85
2021/03/03 02:24:42;;;;;;;4.03;2.53;;;6.20;99.90;;;;;;5095179;28;20210;-85
2021/03/03 02:27:14;;;;;;;4.50;1.77;;;6.20;99.90;;;;;;5135005;27;20241;-85
2021/03/03 02:29:45;;;;;;;4.50;2.10;;;6.20;99.90;;;;;;5114723;27;20292;-83
2021/03/03 02:32:17;;;;;;;5.83;1.67;;;6.20;99.90;;;;;;5104524;28;20202;-85
2021/03/03 02:34:49;;;;;;;5.43;1.70;;;6.20;99.90;;;;;;5115306;28;20251;-84
2021/03/03 02:37:21;;;;;;;4.53;2.30;;;6.20;99.90;;;;;;5115679;28;20289;-84
2021/03/03 02:39:51;;;;;;;6.57;3.10;;;6.20;99.90;;;;;;5095259;28;20206;-84
2021/03/03 02:42:23;;;;;;;3.67;2.50;;;6.10;99.90;;;;;;5115441;28;20234;-84
2021/03/03 02:44:53;;;;;;;7.57;2.60;;;6.20;99.90;;;;;;5103682;28;20211;-82
2021/03/03 02:47:23;;;;;;;3.77;2.67;;;6.10;99.90;;;;;;5102539;28;20260;-82
2021/03/03 02:49:53;;;;;;;7.97;2.90;;;6.10;99.90;;;;;;5114116;28;20297;-83
2021/03/03 02:52:27;;;;;;;4.43;2.10;;;6.10;99.90;;;;;;5114248;28;20235;-83
2021/03/03 02:54:58;;;;;;;3.60;2.00;;;6.10;99.90;;;;;;5113815;28;20241;-83
2021/03/03 02:57:29;;;;;;;5.43;2.00;;;6.10;99.90;;;;;;5094259;28;20271;-82
2021/03/03 02:59:59;;;;;;;2.73;1.77;;;6.10;99.90;;;;;;5110690;28;20285;-83
2021/03/03 03:02:31;;;;;;;4.07;2.27;;;6.00;99.90;;;;;;5117691;28;20217;-83
2021/03/03 03:05:04;;;;;;;3.77;1.90;;;6.00;99.90;;;;;;5119627;28;20215;-83
2021/03/03 03:07:36;;;;;;;6.33;2.00;;;6.00;99.90;;;;;;5119326;28;20229;-83
2021/03/03 03:10:09;;;;;;;7.67;2.40;;;5.90;99.90;;;;;;5109297;28;20670;-82
2021/03/03 03:12:44;;;;;;;7.10;2.20;;;5.90;99.90;;;;;;5093787;28;20221;-83
2021/03/03 03:15:17;;;;;;;5.77;2.20;;;5.80;99.90;;;;;;5093382;28;20291;-86
2021/03/03 03:17:51;;;;;;;6.53;2.50;;;5.70;99.90;;;;;;5096159;28;20217;-85
2021/03/03 03:20:22;;;;;;;6.53;2.43;;;5.70;99.90;;;;;;5115046;28;20201;-84
2021/03/03 03:22:54;;;;;;;4.43;2.90;;;5.60;99.90;;;;;;5115265;28;20236;-85
2021/03/03 03:25:26;;;;;;;5.80;2.60;;;5.60;99.90;;;;;;5118521;28;20666;-84
2021/03/03 03:28:01;;;;;;;6.57;2.27;;;5.50;99.90;;;;;;5115058;28;20229;-85
2021/03/03 03:30:33;;;;;;;6.97;2.70;;;5.50;99.90;;;;;;5097631;28;20228;-84
2021/03/03 03:33:05;;;;;;;4.90;2.23;;;5.40;99.90;;;;;;5114384;28;20211;-83
2021/03/03 03:35:38;;;;;;;5.13;2.17;;;5.40;99.90;;;;;;5112587;28;20225;-83
2021/03/03 03:38:10;;;;;;;7.37;2.60;;;5.30;99.90;;;;;;5114888;28;20256;-83
2021/03/03 03:40:43;;;;;;;5.37;2.47;;;5.30;99.90;;;;;;5117463;28;20210;-84
2021/03/03 03:43:18;;;;;;;4.73;2.30;;;5.30;99.90;;;;;;5115685;28;20198;-85
2021/03/03 03:45:53;;;;;;;4.77;2.20;;;5.30;99.90;;;;;;5113736;28;20252;-83
2021/03/03 03:48:24;;;;;;;7.27;2.53;;;5.30;99.90;;;;;;5113071;28;20302;-82
2021/03/03 03:50:56;;;;;;;5.50;3.07;;;5.30;99.90;;;;;;5095691;28;20206;-81
2021/03/03 03:53:31;;;;;;;4.67;2.40;;;5.30;99.90;;;;;;5083628;28;20194;-82
2021/03/03 03:56:02;;;;;;;11.37;2.70;;;5.30;99.90;;;;;;5112597;28;20989;-81
2021/03/03 04:01:47;;;;;;;5.20;2.23;;;5.20;99.90;;;;;;5111618;28;20200;-85
2021/03/03 04:04:18;;;;;;;5.50;2.40;;;5.20;99.90;;;;;;5110729;28;20613;-83
2021/03/03 04:06:48;;;;;;;5.77;2.80;;;5.20;99.90;;;;;;5092653;28;20287;-82
2021/03/03 04:09:19;;;;;;;8.87;2.77;;;5.20;99.90;;;;;;4757209;28;10000084;-82
2021/03/03 04:11:49;;;;;;;4.97;2.80;;;5.20;99.90;;;;;;5095621;28;20220;-83
2021/03/03 04:14:20;;;;;;;4.63;2.73;;;5.20;99.90;;;;;;5106611;28;20214;-83
2021/03/03 04:16:50;;;;;;;5.80;3.40;;;5.20;99.90;;;;;;5113116;28;20206;-84
2021/03/03 04:19:20;;;;;;;5.67;3.30;;;5.20;99.90;;;;;;5114016;28;20198;-83
2021/03/03 04:21:50;;;;;;;7.50;3.50;;;5.20;99.90;;;;;;5105025;28;20298;-83
2021/03/03 04:24:19;;;;;;;6.90;2.90;;;5.20;99.90;;;;;;5113867;28;20563;-84
2021/03/03 04:26:49;;;;;;;8.07;3.27;;;5.20;99.90;;;;;;5114911;28;20218;-84
2021/03/03 04:29:22;;;;;;;8.07;3.70;;;5.20;99.90;;;;;;5109190;28;20259;-85
2021/03/03 04:31:51;;;;;;;8.37;3.80;;;5.20;99.90;;;;;;5122768;28;20191;-82
2021/03/03 04:34:22;;;;;;;10.50;3.43;;;5.20;99.90;;;;;;5131749;28;20233;-83
2021/03/03 04:36:52;;;;;;;8.23;2.90;;;5.20;99.90;;;;;;5110865;28;20210;-83
2021/03/03 04:39:21;;;;;;;6.90;3.57;;;5.20;99.90;;;;;;5122677;28;20210;-82
2021/03/03 04:41:52;;;;;;;7.03;3.47;;;5.20;99.90;;;;;;5120610;28;20224;-84
2021/03/03 04:44:24;;;;;;;9.00;3.30;;;5.20;99.90;;;;;;5122804;28;20228;-82
2021/03/03 04:46:55;;;;;;;4.97;3.23;;;5.20;99.90;;;;;;5109136;28;20279;-83
2021/03/03 04:49:27;;;;;;;8.63;3.57;;;5.20;99.90;;;;;;5116692;28;20229;-81
2021/03/03 04:51:58;;;;;;;9.37;4.77;;;5.10;99.90;;;;;;5126232;28;20231;-83
2021/03/03 04:54:28;;;;;;;9.23;4.40;;;5.10;99.90;;;;;;5117715;28;20197;-83
2021/03/03 04:56:59;;;;;;;6.90;3.87;;;5.10;99.90;;;;;;5096757;28;20677;-84
2021/03/03 04:59:30;;;;;;;8.33;3.83;;;5.10;99.90;;;;;;5109577;28;20203;-82
2021/03/03 05:02:00;;;;;;;9.67;5.10;;;5.00;99.90;;;;;;5108564;28;20253;-82
2021/03/03 05:04:33;;;;;;;11.20;4.80;;;5.00;99.90;;;;;;5092936;28;20617;-83
2021/03/03 05:07:02;;;;;;;9.33;5.57;;;5.00;99.90;;;;;;5092979;28;20634;-82
2021/03/03 05:09:32;;;;;;;8.27;4.90;;;5.00;99.90;;;;;;5093087;28;20207;-82
2021/03/03 05:12:02;;;;;;;10.93;5.17;;;5.00;99.90;;;;;;5096754;28;20199;-83
2021/03/03 05:14:33;;;;;;;7.17;4.17;;;4.90;99.90;;;;;;5115070;28;20202;-83
2021/03/03 05:17:09;;;;;;;7.30;4.40;;;4.90;99.90;;;;;;5116458;28;20210;-84
2021/03/03 05:19:39;;;;;;;8.43;4.63;;;4.90;99.90;;;;;;5109505;28;20206;-85
2021/03/03 05:22:11;;;;;;;8.43;4.73;;;5.00;99.90;;;;;;5103495;28;20207;-84
2021/03/03 05:24:43;;;;;;;7.37;4.17;;;5.00;99.90;;;;;;5116072;28;20206;-85
2021/03/03 05:27:16;;;;;;;7.33;4.00;;;5.00;99.90;;;;;;5115484;28;20241;-83
2021/03/03 05:29:48;;;;;;;9.20;4.70;;;5.00;99.90;;;;;;5099466;28;20206;-84
2021/03/03 05:32:21;;;;;;;12.63;5.13;;;5.00;99.90;;;;;;5104623;28;20224;-84
2021/03/03 05:34:52;;;;;;;9.90;6.23;;;5.00;99.90;;;;;;5104752;28;20210;-83
2021/03/03 05:37:23;;;;;;;17.43;8.37;;;5.00;99.90;;;;;;5098380;28;20289;-84
2021/03/03 05:39:54;;;;;;;17.17;9.30;;;5.10;99.90;;;;;;5109378;28;20214;-84
2021/03/03 05:42:25;;;;;;;22.67;11.23;;;5.10;99.90;;;;;;5090404;28;20210;-84
2021/03/03 05:44:59;;;;;;;13.43;8.23;;;5.10;99.90;;;;;;5097613;28;20199;-82
2021/03/03 05:47:31;;;;;;;10.53;5.23;;;5.10;99.90;;;;;;5115034;28;20234;-83
2021/03/03 05:50:06;;;;;;;11.13;6.07;;;5.20;99.90;;;;;;5116233;28;20194;-84
2021/03/03 05:52:41;;;;;;;11.90;5.93;;;5.20;99.90;;;;;;5115108;28;20206;-82
2021/03/03 05:55:13;;;;;;;9.23;4.73;;;5.20;99.90;;;;;;5100630;28;20206;-83
2021/03/03 05:57:45;;;;;;;8.73;4.37;;;5.20;99.90;;;;;;5091141;28;20225;-83
2021/03/03 06:00:18;;;;;;;8.70;3.97;;;5.20;99.90;;;;;;5106627;28;20283;-84
2021/03/03 06:02:49;;;;;;;6.07;3.67;;;5.20;99.90;;;;;;5094529;28;20199;-82
2021/03/03 06:05:19;;;;;;;7.17;3.80;;;5.20;99.90;;;;;;5113463;28;20259;-82
2021/03/03 06:07:49;;;;;;;6.93;4.00;;;5.20;99.90;;;;;;5114551;28;20265;-82
2021/03/03 06:10:19;;;;;;;5.93;4.03;;;5.20;99.90;;;;;;5114948;28;20658;-82
2021/03/03 06:12:51;;;;;;;8.80;4.30;;;5.20;99.90;;;;;;5106245;28;20564;-83
2021/03/03 06:15:24;;;;;;;9.70;4.80;;;5.20;99.90;;;;;;5095842;28;20223;-83
2021/03/03 06:17:55;;;;;;;8.80;4.57;;;5.20;99.90;;;;;;5101730;28;20616;-85
2021/03/03 06:20:25;;;;;;;10.03;4.73;;;5.20;99.90;;;;;;5101557;28;20218;-83
2021/03/03 06:23:12;;;;;;;9.27;4.50;;;5.20;99.90;;;;;;5118540;28;20733;-84
2021/03/03 06:25:43;;;;;;;7.03;4.33;;;5.20;99.90;;;;;;5114925;28;20233;-84
2021/03/03 06:28:12;;;;;;;7.03;3.60;;;5.20;99.90;;;;;;5108479;28;20252;-84
2021/03/03 06:30:44;;;;;;;7.73;4.07;;;5.20;99.90;;;;;;5106188;28;20252;-84
2021/03/03 06:33:15;;;;;;;10.37;4.30;;;5.20;99.90;;;;;;5114490;28;20293;-84
2021/03/03 06:35:47;;;;;;;8.27;3.90;;;5.20;99.90;;;;;;5116056;28;20217;-83
2021/03/03 06:38:17;;;;;;;7.73;4.23;;;5.20;99.90;;;;;;5115319;28;20643;-83
2021/03/03 06:40:51;;;;;;;7.27;3.70;;;5.20;99.90;;;;;;5115602;28;20210;-83
2021/03/03 06:43:23;;;;;;;7.40;3.93;;;5.20;99.90;;;;;;5114828;28;20248;-84
2021/03/03 06:45:55;;;;;;;5.47;3.53;;;5.20;99.90;;;;;;5114841;28;20198;-83
2021/03/03 06:48:38;;;;;;;8.47;3.77;;;5.20;99.90;;;;;;5094388;28;20238;-82
2021/03/03 06:51:25;;;;;;;6.30;3.37;;;5.20;99.90;;;;;;5094886;28;20226;-83
2021/03/03 06:53:56;;;;;;;6.07;3.70;;;5.20;99.90;;;;;;5094857;28;20549;-84
2021/03/03 06:56:38;;;;;;;9.80;4.20;;;5.20;99.90;;;;;;5110807;28;20282;-84
2021/03/03 06:59:23;;;;;;;9.47;3.87;;;5.20;99.90;;;;;;5094564;28;20245;-83
2021/03/03 07:01:55;;;;;;;10.37;3.63;;;5.20;99.90;;;;;;5107760;28;20195;-83
2021/03/03 07:04:29;;;;;;;10.63;4.00;;;5.10;99.90;;;;;;5115916;28;20227;-84
2021/03/03 07:07:01;;;;;;;7.67;4.10;;;5.10;99.90;;;;;;5116130;28;20210;-83
2021/03/03 07:09:49;;;;;;;8.40;4.20;;;5.10;99.90;;;;;;5112656;28;20202;-84
2021/03/03 07:12:26;;;;;;;6.27;4.07;;;5.10;99.90;;;;;;5087354;28;20203;-84
2021/03/03 07:15:01;;;;;;;9.90;4.20;;;5.00;99.90;;;;;;5103097;28;20259;-83
2021/03/03 07:17:35;;;;;;;6.23;3.73;;;5.00;99.90;;;;;;5114089;28;20288;-83
2021/03/03 07:20:07;;;;;;;10.03;4.77;;;4.90;99.90;;;;;;5112262;28;20202;-83
2021/03/03 07:22:38;;;;;;;9.90;4.70;;;4.90;99.90;;;;;;5113299;28;20217;-83
2021/03/03 07:25:10;;;;;;;7.13;3.93;;;4.90;99.90;;;;;;5092453;28;20234;-83
2021/03/03 07:27:41;;;;;;;7.67;4.30;;;4.90;99.90;;;;;;5092750;28;20733;-82
2021/03/03 07:30:13;;;;;;;9.83;4.57;;;4.90;99.90;;;;;;5093682;28;20717;-83
2021/03/03 07:32:45;;;;;;;6.47;4.20;;;4.90;99.90;;;;;;5093513;28;20256;-83
2021/03/03 07:35:31;;;;;;;8.03;4.90;;;4.90;99.90;;;;;;5092371;28;20635;-84
2021/03/03 07:38:03;;;;;;;10.37;4.80;;;5.00;99.90;;;;;;5107994;28;20197;-84
2021/03/03 07:40:34;;;;;;;10.13;5.40;;;5.00;99.90;;;;;;5113928;28;20211;-86
2021/03/03 07:43:07;;;;;;;9.97;5.70;;;5.00;99.90;;;;;;5113794;28;20218;-83
2021/03/03 07:45:38;;;;;;;9.50;5.50;;;5.00;99.90;;;;;;5113674;28;20569;-82
2021/03/03 07:48:12;;;;;;;11.93;5.97;;;5.00;99.90;;;;;;5114617;28;20281;-83
2021/03/03 07:50:42;;;;;;;8.60;5.53;;;5.00;99.90;;;;;;5119368;28;20206;-82
2021/03/03 07:53:14;;;;;;;8.33;5.37;;;5.00;99.90;;;;;;5118068;28;20297;-82
2021/03/03 07:55:44;;;;;;;8.70;5.13;;;5.00;99.90;;;;;;5100785;28;20206;-83
2021/03/03 07:58:15;;;;;;;13.57;5.47;;;5.00;99.90;;;;;;5094973;28;20272;-83
2021/03/03 08:00:45;;;;;;;9.57;5.37;;;4.90;99.90;;;;;;5097827;28;20310;-83
2021/03/03 08:03:38;;;;;;;10.87;5.40;;;4.90;99.90;;;;;;5096370;28;20237;-84
2021/03/03 08:06:26;;;;;;;11.13;5.30;;;4.90;99.90;;;;;;5093567;28;20202;-84
2021/03/03 08:09:18;;;;;;;9.53;5.20;;;4.90;99.90;;;;;;5113599;28;20756;-83
2021/03/03 08:12:03;;;;;;;9.13;5.47;;;4.90;99.90;;;;;;5113865;28;20997;-82
2021/03/03 08:14:40;;;;;;;9.80;5.17;;;4.90;99.90;;;;;;5094944;28;20301;-81
2021/03/03 08:17:12;;;;;;;8.60;5.07;;;4.80;99.90;;;;;;5112241;28;20256;-82
2021/03/03 08:19:59;;;;;;;12.03;5.67;;;4.80;99.90;;;;;;5113109;28;20269;-82
2021/03/03 08:22:52;;;;;;;9.53;5.03;;;4.70;99.90;;;;;;5112944;28;20210;-83
2021/03/03 08:25:45;;;;;;;8.23;4.80;;;4.70;99.90;;;;;;5112521;28;20205;-83
2021/03/03 08:28:43;;;;;;;10.07;5.47;;;4.70;99.90;;;;;;5133568;28;20319;-83
2021/03/03 08:31:36;;;;;;;10.67;5.23;;;4.70;99.90;;;;;;5098393;28;20670;-82
2021/03/03 08:34:09;;;;;;;10.50;6.07;;;4.70;99.90;;;;;;5118234;28;20214;-82
2021/03/03 08:37:05;;;;;;;8.63;5.43;;;4.80;99.90;;;;;;5110884;28;20202;-84
2021/03/03 08:39:38;;;;;;;8.10;5.03;;;4.80;99.90;;;;;;5092425;28;20230;-84
2021/03/03 08:42:38;;;;;;;8.57;5.03;;;4.80;99.90;;;;;;5092325;28;20227;-84
2021/03/03 08:45:11;;;;;;;8.23;5.33;;;4.90;99.90;;;;;;5091827;28;20686;-84
2021/03/03 08:47:51;;;;;;;10.07;5.67;;;4.90;99.90;;;;;;5096789;28;20740;-83
2021/03/03 08:50:46;;;;;;;9.63;5.47;;;4.90;99.90;;;;;;5096833;28;20552;-82
2021/03/03 08:53:31;;;;;;;11.07;5.17;;;4.80;99.90;;;;;;5114750;28;20259;-84
2021/03/03 08:56:35;;;;;;;8.80;4.90;;;4.90;99.90;;;;;;5117023;28;20225;-84
2021/03/03 08:59:07;;;;;;;14.00;8.27;;;4.80;99.90;;;;;;5117762;28;20218;-84
2021/03/03 09:02:01;;;;;;;15.40;7.73;;;4.80;99.90;;;;;;5117003;28;20214;-84
2021/03/03 09:04:35;;;;;;;9.10;6.27;;;4.80;99.90;;;;;;5116665;28;20206;-83
2021/03/03 09:07:07;;;;;;;9.97;5.73;;;4.70;99.90;;;;;;5117022;28;20973;-82
2021/03/03 09:09:41;;;;;;;10.10;5.67;;;4.70;99.90;;;;;;5116649;28;20727;-82
2021/03/03 09:12:14;;;;;;;11.17;5.90;;;4.60;99.90;;;;;;5116913;28;20210;-83
2021/03/03 09:14:45;;;;;;;9.57;6.47;;;4.50;99.90;;;;;;5116820;28;20213;-83
2021/03/03 09:17:24;;;;;;;10.87;6.97;;;4.50;99.90;;;;;;5121894;28;20254;-83
2021/03/03 09:19:55;;;;;;;12.33;7.57;;;4.40;99.90;;;;;;5124441;28;20213;-84
2021/03/03 09:22:27;;;;;;;10.77;7.53;;;4.40;99.90;;;;;;5124277;28;20210;-80
2021/03/03 09:25:05;;;;;;;11.60;6.93;;;4.30;99.90;;;;;;5123963;28;20202;-83
2021/03/03 09:27:36;;;;;;;9.50;5.70;;;4.10;99.90;;;;;;5136383;28;20213;-83
2021/03/03 09:30:07;;;;;;;8.10;6.27;;;4.00;99.90;;;;;;5137363;28;20194;-83
2021/03/03 09:32:37;;;;;;;11.13;5.80;;;3.90;99.90;;;;;;5136797;28;20187;-84
2021/03/03 09:35:10;;;;;;;9.03;5.13;;;3.90;99.90;;;;;;5138136;28;20206;-83
2021/03/03 09:37:41;;;;;;;10.57;5.33;;;3.80;99.90;;;;;;5120607;28;20654;-82
2021/03/03 09:40:14;;;;;;;11.20;5.10;;;3.80;99.90;;;;;;5129268;28;20232;-83
2021/03/03 09:42:47;;;;;;;8.83;5.20;;;3.70;99.90;;;;;;5117346;28;20203;-82
2021/03/03 09:45:20;;;;;;;9.33;5.30;;;3.70;99.90;;;;;;5115740;28;20322;-83
2021/03/03 09:47:55;;;;;;;6.93;5.07;;;3.60;99.90;;;;;;5123513;28;20233;-84
2021/03/03 09:50:27;;;;;;;12.47;6.00;;;3.50;99.90;;;;;;5119450;28;20220;-83
2021/03/03 09:52:58;;;;;;;9.17;5.43;;;3.50;99.90;;;;;;5130675;28;20206;-85
2021/03/03 09:55:34;;;;;;;11.47;5.33;;;3.50;99.90;;;;;;5130768;28;20207;-84
2021/03/03 09:58:05;;;;;;;7.33;5.07;;;3.40;99.90;;;;;;5134886;28;20227;-83
2021/03/03 10:00:38;;;;;;;8.83;4.87;;;3.40;99.90;;;;;;5128181;28;20203;-83
2021/03/03 10:03:13;;;;;;;9.20;6.37;;;3.30;99.90;;;;;;5125314;28;20210;-84
2021/03/03 10:05:45;;;;;;;10.77;5.43;;;3.30;99.90;;;;;;5125871;28;20209;-83
2021/03/03 10:08:16;;;;;;;8.93;5.47;;;3.30;99.90;;;;;;5102913;28;20234;-82
2021/03/03 10:10:54;;;;;;;9.53;5.30;;;3.20;99.90;;;;;;5097712;28;20699;-82
2021/03/03 10:13:25;;;;;;;9.17;5.53;;;3.20;99.90;;;;;;5116192;28;20259;-82
2021/03/03 10:15:57;;;;;;;8.07;5.73;;;3.20;99.90;;;;;;5116360;28;20256;-82
2021/03/03 10:18:28;;;;;;;9.93;5.53;;;3.20;99.90;;;;;;5116030;28;20285;-82
2021/03/03 10:20:59;;;;;;;9.40;5.97;;;3.10;99.90;;;;;;5115344;28;20259;-84
2021/03/03 10:23:30;;;;;;;21.90;11.20;;;3.20;99.90;;;;;;5115275;28;20241;-83
2021/03/03 10:26:06;;;;;;;39.13;22.70;;;3.10;99.90;;;;;;5115955;28;20698;-83
2021/03/03 10:28:38;;;;;;;48.93;30.30;;;3.10;99.90;;;;;;5115335;28;20266;-83
2021/03/03 10:31:18;;;;;;;51.30;31.47;;;3.10;99.90;;;;;;5114503;28;20593;-83
2021/03/03 10:33:49;;;;;;;48.90;29.07;;;3.00;99.90;;;;;;5113746;28;20202;-83
2021/03/03 10:36:22;;;;;;;24.50;16.07;;;3.00;99.90;;;;;;5096895;28;20212;-83
2021/03/03 10:38:54;;;;;;;19.93;12.27;;;3.00;99.90;;;;;;5102428;28;20214;-83
2021/03/03 10:41:28;;;;;;;13.50;8.10;;;3.00;99.90;;;;;;5094648;28;20210;-83
2021/03/03 10:43:59;;;;;;;11.97;6.93;;;2.90;99.90;;;;;;5093424;28;20203;-83
2021/03/03 10:46:29;;;;;;;11.87;7.67;;;2.90;99.90;;;;;;5099364;28;20238;-83
2021/03/03 10:49:13;;;;;;;16.87;7.57;;;2.90;99.90;;;;;;5114308;28;20255;-83
2021/03/03 10:51:44;;;;;;;11.70;7.03;;;2.80;99.90;;;;;;5114688;28;20209;-83
2021/03/03 10:54:32;;;;;;;8.17;5.17;;;2.80;99.90;;;;;;5113969;28;20216;-83
2021/03/03 10:57:09;;;;;;;9.53;6.00;;;2.80;99.90;;;;;;5115554;28;20210;-83
2021/03/03 10:59:41;;;;;;;7.60;5.37;;;2.80;99.90;;;;;;5095760;28;20226;-82
2021/03/03 11:02:11;;;;;;;9.10;5.37;;;2.80;99.90;;;;;;5094261;28;20229;-83
2021/03/03 11:04:44;;;;;;;10.50;5.30;;;2.70;99.90;;;;;;5094155;28;20210;-83
2021/03/03 11:07:15;;;;;;;9.13;5.47;;;2.70;99.90;;;;;;5094168;28;20583;-83
2021/03/03 11:09:52;;;;;;;9.07;5.13;;;2.70;99.90;;;;;;5103592;28;20671;-83
2021/03/03 11:12:27;;;;;;;11.07;5.70;;;2.60;99.90;;;;;;5094921;28;20213;-82
2021/03/03 11:14:58;;;;;;;9.60;5.53;;;2.60;99.90;;;;;;5092526;28;20690;-83
2021/03/03 11:17:30;;;;;;;7.47;4.80;;;2.60;99.90;;;;;;5093632;28;20198;-83
2021/03/03 11:20:00;;;;;;;10.90;5.30;;;2.60;99.90;;;;;;5093415;28;20217;-84
2021/03/03 11:22:31;;;;;;;9.67;5.47;;;2.50;99.90;;;;;;5101597;28;20247;-84
2021/03/03 11:25:03;;;;;;;7.43;4.93;;;2.50;99.90;;;;;;5111988;28;20206;-83
2021/03/03 11:27:36;;;;;;;8.07;5.77;;;2.50;99.90;;;;;;5108644;28;20664;-83
2021/03/03 11:30:08;;;;;;;10.53;5.93;;;2.40;99.90;;;;;;5093462;28;20245;-83
2021/03/03 11:32:39;;;;;;;9.40;5.63;;;2.40;99.90;;;;;;5076547;28;20203;-83
2021/03/03 11:35:11;;;;;;;9.13;5.50;;;2.40;99.90;;;;;;5075214;28;20207;-83
2021/03/03 11:37:42;;;;;;;11.83;5.90;;;2.40;99.90;;;;;;5105249;28;20251;-83
2021/03/03 11:40:13;;;;;;;9.77;5.07;;;2.40;99.90;;;;;;5114030;28;20566;-84
2021/03/03 11:42:43;;;;;;;9.50;5.43;;;2.40;99.90;;;;;;5114107;28;20680;-83
2021/03/03 11:45:15;;;;;;;7.93;5.40;;;2.40;99.90;;;;;;5112806;28;20307;-84
2021/03/03 11:47:47;;;;;;;10.13;5.40;;;2.40;99.90;;;;;;5113718;28;20206;-85
2021/03/03 11:50:16;;;;;;;9.63;4.90;;;2.40;99.90;;;;;;5113532;28;20213;-83
2021/03/03 11:52:46;;;;;;;9.80;4.83;;;2.40;99.90;;;;;;5113599;28;20227;-84
2021/03/03 11:55:17;;;;;;;10.57;5.30;;;2.40;99.90;;;;;;5112633;28;20209;-82
2021/03/03 11:57:47;;;;;;;10.23;4.53;;;2.40;99.90;;;;;;5108734;28;20264;-83
2021/03/03 12:00:18;;;;;;;7.00;4.60;;;2.30;99.90;;;;;;5106790;28;20207;-84
2021/03/03 12:02:55;;;;;;;8.13;4.70;;;2.30;99.90;;;;;;5111584;28;20292;-83
2021/03/03 12:05:26;;;;;;;7.63;4.90;;;2.30;99.90;;;;;;5111014;28;20202;-84
2021/03/03 12:07:55;;;;;;;5.87;4.20;;;2.30;99.90;;;;;;5114326;28;20210;-83
2021/03/03 12:10:25;;;;;;;9.37;4.57;;;2.20;99.90;;;;;;5114667;28;20645;-83
2021/03/03 12:12:56;;;;;;;6.13;4.63;;;2.20;99.90;;;;;;5113749;28;20214;-83
2021/03/03 12:15:26;;;;;;;7.23;4.70;;;2.20;99.90;;;;;;5106164;28;20214;-83
2021/03/03 12:17:56;;;;;;;7.53;5.27;;;2.20;99.90;;;;;;5092338;28;20572;-84
2021/03/03 12:20:33;;;;;;;8.50;5.03;;;2.20;99.90;;;;;;5094273;28;20210;-83
2021/03/03 12:23:03;;;;;;;7.07;4.47;;;2.20;99.90;;;;;;5097618;28;20213;-83
2021/03/03 12:25:34;;;;;;;12.47;5.90;;;2.30;99.90;;;;;;5104607;28;20220;-83
2021/03/03 12:28:07;;;;;;;10.37;5.33;;;2.30;99.90;;;;;;5118156;28;20260;-84
2021/03/03 12:30:37;;;;;;;15.77;5.80;;;2.30;99.90;;;;;;5118818;28;20263;-84
2021/03/03 12:33:08;;;;;;;12.77;5.10;;;2.30;99.90;;;;;;5112205;28;20210;-88
2021/03/03 12:35:38;;;;;;;7.60;4.87;;;2.30;99.90;;;;;;5097975;28;20226;-85
2021/03/03 12:38:10;;;;;;;9.03;4.93;;;2.30;99.90;;;;;;5096677;28;20206;-84
2021/03/03 12:40:41;;;;;;;8.73;5.13;;;2.30;99.90;;;;;;5117690;28;20202;-84
2021/03/03 12:43:13;;;;;;;8.23;4.57;;;2.30;99.90;;;;;;5082841;28;20577;-86
2021/03/03 12:45:44;;;;;;;11.57;5.10;;;2.40;99.90;;;;;;5079035;28;20209;-84
2021/03/03 12:48:16;;;;;;;14.73;5.43;;;2.40;99.90;;;;;;5096643;28;20572;-85
2021/03/03 12:50:47;;;;;;;7.40;4.53;;;2.40;99.90;;;;;;5097327;28;20202;-84
2021/03/03 12:53:18;;;;;;;7.30;4.83;;;2.40;99.90;;;;;;5095953;28;20209;-84
2021/03/03 12:55:49;;;;;;;7.67;4.13;;;2.30;99.90;;;;;;5096733;28;20216;-84
2021/03/03 12:58:20;;;;;;;6.67;4.13;;;2.30;99.90;;;;;;5096869;28;20670;-85
2021/03/03 13:00:51;;;;;;;5.87;3.60;;;2.20;99.90;;;;;;5097286;28;20230;-84
2021/03/03 13:03:20;;;;;;;6.00;4.60;;;2.10;99.90;;;;;;5095666;28;20227;-83
2021/03/03 13:05:51;;;;;;;6.80;4.17;;;2.10;99.90;;;;;;5096388;28;20201;-83
2021/03/03 13:08:21;;;;;;;5.00;3.93;;;2.10;99.90;;;;;;5100564;28;20321;-83
2021/03/03 13:10:51;;;;;;;8.00;4.43;;;2.00;99.90;;;;;;5116339;28;20210;-86
2021/03/03 13:13:22;;;;;;;5.97;3.73;;;1.90;99.90;;;;;;5115262;28;20206;-85
2021/03/03 13:15:52;;;;;;;7.37;4.13;;;1.90;99.90;;;;;;5116395;28;20206;-84
2021/03/03 13:18:24;;;;;;;7.10;4.43;;;1.80;99.90;;;;;;5116163;28;20232;-84
2021/03/03 13:20:54;;;;;;;8.37;4.40;;;1.80;99.90;;;;;;5116228;28;20240;-85
2021/03/03 13:23:25;;;;;;;8.90;4.40;;;1.90;99.90;;;;;;5115010;28;20209;-82
2021/03/03 13:25:55;;;;;;;8.50;4.37;;;1.90;99.90;;;;;;5098236;28;20197;-83
2021/03/03 13:28:30;;;;;;;7.03;4.17;;;1.90;99.90;;;;;;5116129;28;20222;-83
2021/03/03 13:31:00;;;;;;;6.37;4.17;;;1.90;99.90;;;;;;5116054;28;20240;-84